Time;durP1;ratioP1;P1;durP2;ratioP2;P2;SDS_P1;SDS_P2;PMS_P1;PMS_P2;Temp;Humidity;BMP_temperature;BMP_pressure;BME280_temperature;BME280_humidity;BME280_pressure;Samples;Min_cycle;Max_cycle;Signal;HPM_P1;HPM_P2
2022/07/09 00:01:15;;;;;;;6.35;3.35;;;;;;;;;;4996884;28;20025;-80
2022/07/09 00:03:41;;;;;;;8.18;3.20;;;;;;;;;;4996910;28;20400;-80
2022/07/09 00:06:07;;;;;;;8.32;3.92;;;;;;;;;;5015263;28;20033;-80
2022/07/09 00:08:33;;;;;;;7.88;3.95;;;;;;;;;;5016400;28;20088;-81
2022/07/09 00:10:59;;;;;;;6.47;4.13;;;;;;;;;;5014803;28;20422;-80
2022/07/09 00:13:25;;;;;;;7.00;3.35;;;;;;;;;;5016392;28;20495;-80
2022/07/09 00:15:52;;;;;;;5.65;3.35;;;;;;;;;;4990291;28;20034;-81
2022/07/09 00:18:18;;;;;;;6.47;3.83;;;;;;;;;;4995548;28;20065;-80
2022/07/09 00:20:44;;;;;;;6.30;3.25;;;;;;;;;;4996618;28;20022;-80
2022/07/09 00:23:10;;;;;;;7.07;4.15;;;;;;;;;;4995394;28;20026;-81
2022/07/09 00:25:36;;;;;;;6.28;3.35;;;;;;;;;;4996021;28;20048;-80
2022/07/09 00:28:03;;;;;;;7.03;3.53;;;;;;;;;;4996090;28;20109;-80
2022/07/09 00:30:28;;;;;;;7.00;3.58;;;;;;;;;;4995014;28;20034;-80
2022/07/09 00:32:55;;;;;;;7.50;3.58;;;;;;;;;;4996141;28;20034;-79
2022/07/09 00:35:21;;;;;;;8.60;3.75;;;;;;;;;;5009156;28;20050;-81
2022/07/09 00:37:47;;;;;;;7.55;3.75;;;;;;;;;;5014957;28;20114;-80
2022/07/09 00:40:13;;;;;;;6.15;3.42;;;;;;;;;;5009551;28;20457;-80
2022/07/09 00:42:39;;;;;;;8.10;4.43;;;;;;;;;;4995916;28;20046;-80
2022/07/09 00:45:05;;;;;;;7.93;3.55;;;;;;;;;;4995313;28;20030;-80
2022/07/09 00:47:31;;;;;;;6.35;3.42;;;;;;;;;;4981877;28;20038;-80
2022/07/09 00:49:57;;;;;;;6.50;3.70;;;;;;;;;;4976629;28;20074;-80
2022/07/09 00:52:23;;;;;;;6.93;3.20;;;;;;;;;;4982303;28;20033;-80
2022/07/09 00:54:50;;;;;;;6.10;3.15;;;;;;;;;;4994100;28;20037;-80
2022/07/09 00:57:17;;;;;;;7.28;3.70;;;;;;;;;;4994681;28;20076;-80
2022/07/09 00:59:43;;;;;;;6.22;3.70;;;;;;;;;;4995788;28;20022;-80
2022/07/09 01:02:09;;;;;;;7.10;3.65;;;;;;;;;;4995817;28;20037;-80
2022/07/09 01:04:36;;;;;;;6.90;3.55;;;;;;;;;;5002060;28;20022;-80
2022/07/09 01:07:02;;;;;;;6.47;3.55;;;;;;;;;;5013900;28;20030;-80
2022/07/09 01:09:29;;;;;;;9.02;4.38;;;;;;;;;;5014838;28;20488;-80
2022/07/09 01:11:55;;;;;;;5.72;3.10;;;;;;;;;;5014885;28;20030;-80
2022/07/09 01:14:22;;;;;;;6.53;3.47;;;;;;;;;;5009403;28;20040;-80
2022/07/09 01:16:56;;;;;;;6.05;3.35;;;;;;;;;;4994730;28;20113;-80
2022/07/09 01:19:23;;;;;;;6.78;3.60;;;;;;;;;;4995294;28;20027;-80
2022/07/09 01:21:49;;;;;;;6.75;3.80;;;;;;;;;;4994375;28;20102;-80
2022/07/09 01:24:15;;;;;;;6.85;3.45;;;;;;;;;;4987959;28;20018;-79
2022/07/09 01:26:41;;;;;;;8.43;3.80;;;;;;;;;;4995224;28;20031;-80
2022/07/09 01:29:07;;;;;;;7.57;3.65;;;;;;;;;;4995227;28;20026;-80
2022/07/09 01:31:33;;;;;;;5.68;3.35;;;;;;;;;;4992946;28;20026;-80
2022/07/09 01:33:59;;;;;;;8.00;3.78;;;;;;;;;;4993075;28;20030;-80
2022/07/09 01:36:25;;;;;;;6.50;3.85;;;;;;;;;;5001897;28;20127;-80
2022/07/09 01:38:51;;;;;;;5.32;3.38;;;;;;;;;;5014674;28;20022;-80
2022/07/09 01:41:17;;;;;;;6.57;3.28;;;;;;;;;;5012299;28;20018;-80
2022/07/09 01:43:43;;;;;;;5.68;3.28;;;;;;;;;;4994920;28;20022;-80
2022/07/09 01:46:09;;;;;;;6.25;3.40;;;;;;;;;;4995164;28;20396;-80
2022/07/09 01:48:35;;;;;;;5.50;2.95;;;;;;;;;;5002228;28;20033;-80
2022/07/09 01:51:01;;;;;;;7.53;4.28;;;;;;;;;;5014461;28;20034;-80
2022/07/09 01:53:27;;;;;;;5.72;3.30;;;;;;;;;;5014760;28;20089;-81
2022/07/09 01:55:53;;;;;;;7.68;3.80;;;;;;;;;;5014404;28;20028;-80
2022/07/09 01:58:20;;;;;;;6.78;3.63;;;;;;;;;;5011450;28;20096;-79
2022/07/09 02:00:46;;;;;;;7.18;3.30;;;;;;;;;;5013420;28;20068;-80
2022/07/09 02:03:12;;;;;;;6.43;3.30;;;;;;;;;;5014562;28;20025;-79
2022/07/09 02:05:38;;;;;;;5.60;3.35;;;;;;;;;;5020902;28;20321;-79
2022/07/09 02:08:04;;;;;;;5.78;3.05;;;;;;;;;;5017704;28;20365;-80
2022/07/09 02:10:30;;;;;;;6.68;3.80;;;;;;;;;;5014794;28;20113;-80
2022/07/09 02:12:56;;;;;;;5.57;3.17;;;;;;;;;;4999032;28;20508;-79
2022/07/09 02:15:22;;;;;;;5.47;2.80;;;;;;;;;;4993061;28;20031;-80
2022/07/09 02:17:49;;;;;;;5.53;3.10;;;;;;;;;;5003258;28;20530;-80
2022/07/09 02:20:15;;;;;;;6.68;3.60;;;;;;;;;;5014403;28;20779;-80
2022/07/09 02:22:41;;;;;;;7.20;3.60;;;;;;;;;;5014105;28;20026;-80
2022/07/09 02:25:08;;;;;;;5.65;2.92;;;;;;;;;;5014305;28;20065;-80
2022/07/09 02:27:34;;;;;;;7.53;3.20;;;;;;;;;;5014305;28;20030;-80
2022/07/09 02:30:00;;;;;;;6.00;3.75;;;;;;;;;;5000764;28;20041;-80
2022/07/09 02:32:26;;;;;;;7.85;3.70;;;;;;;;;;4994581;28;20429;-81
2022/07/09 02:34:52;;;;;;;6.22;3.55;;;;;;;;;;4994537;28;20427;-80
2022/07/09 02:37:18;;;;;;;5.93;3.10;;;;;;;;;;4994742;28;20543;-80
2022/07/09 02:39:44;;;;;;;6.07;2.72;;;;;;;;;;4994768;28;20026;-79
2022/07/09 02:42:10;;;;;;;5.72;2.97;;;;;;;;;;4995784;28;20030;-79
2022/07/09 02:44:36;;;;;;;5.60;3.08;;;;;;;;;;4993384;28;20414;-80
2022/07/09 02:47:02;;;;;;;5.50;3.15;;;;;;;;;;4994175;28;20054;-80
2022/07/09 02:49:29;;;;;;;5.43;2.80;;;;;;;;;;4994270;28;20030;-80
2022/07/09 02:51:59;;;;;;;5.75;3.35;;;;;;;;;;4993897;28;20381;-81
2022/07/09 02:54:25;;;;;;;5.25;2.70;;;;;;;;;;4995548;28;20033;-80
2022/07/09 02:56:51;;;;;;;5.22;2.92;;;;;;;;;;5010576;28;20034;-80
2022/07/09 02:59:17;;;;;;;6.40;3.17;;;;;;;;;;5013892;28;20396;-80
2022/07/09 03:01:43;;;;;;;7.38;3.13;;;;;;;;;;5017329;28;20013;-80
2022/07/09 03:04:10;;;;;;;5.82;3.00;;;;;;;;;;5001368;28;20081;-81
2022/07/09 03:06:36;;;;;;;6.68;3.03;;;;;;;;;;5014674;28;20029;-80
2022/07/09 03:09:02;;;;;;;6.40;3.78;;;;;;;;;;5017435;28;20033;-80
2022/07/09 03:11:28;;;;;;;5.38;2.92;;;;;;;;;;5010144;28;20066;-80
2022/07/09 03:13:54;;;;;;;6.13;2.70;;;;;;;;;;4977916;28;20093;-80
2022/07/09 03:16:21;;;;;;;5.88;2.80;;;;;;;;;;5008807;28;20480;-80
2022/07/09 03:18:47;;;;;;;5.18;2.70;;;;;;;;;;5017311;28;20029;-80
2022/07/09 03:21:13;;;;;;;5.72;2.97;;;;;;;;;;5017379;28;20022;-79
2022/07/09 03:23:39;;;;;;;6.20;2.92;;;;;;;;;;5017278;28;20021;-80
2022/07/09 03:26:06;;;;;;;6.60;3.15;;;;;;;;;;5015579;28;20030;-80
2022/07/09 03:28:32;;;;;;;5.50;3.05;;;;;;;;;;5016648;28;20443;-81
2022/07/09 03:30:58;;;;;;;5.70;3.10;;;;;;;;;;5016977;28;20030;-80
2022/07/09 03:33:24;;;;;;;7.25;2.95;;;;;;;;;;5017051;28;20022;-80
2022/07/09 03:35:50;;;;;;;5.50;3.00;;;;;;;;;;5017122;28;20046;-80
2022/07/09 03:38:16;;;;;;;5.53;2.80;;;;;;;;;;5015517;28;20090;-81
2022/07/09 03:40:42;;;;;;;7.35;3.47;;;;;;;;;;5015551;28;20046;-80
2022/07/09 03:43:08;;;;;;;6.03;2.80;;;;;;;;;;4997826;28;20066;-80
2022/07/09 03:45:34;;;;;;;6.53;3.05;;;;;;;;;;4997296;28;20037;-80
2022/07/09 03:48:00;;;;;;;6.15;2.72;;;;;;;;;;4997196;28;20053;-80
2022/07/09 03:50:26;;;;;;;6.05;2.80;;;;;;;;;;5009285;28;20030;-80
2022/07/09 03:52:52;;;;;;;6.80;3.33;;;;;;;;;;5016808;28;20029;-80
2022/07/09 03:58:21;;;;;;;;;;;;;;;;;;5017058;28;20041;-80
2022/07/09 04:00:47;;;;;;;4.60;2.85;;;;;;;;;;4999569;28;19910;-80
2022/07/09 04:03:13;;;;;;;6.07;3.22;;;;;;;;;;4996698;28;20062;-80
2022/07/09 04:05:41;;;;;;;5.28;3.17;;;;;;;;;;4997021;28;20109;-81
2022/07/09 04:08:07;;;;;;;5.65;2.60;;;;;;;;;;4997054;28;20476;-80
2022/07/09 04:10:33;;;;;;;7.25;3.17;;;;;;;;;;4995505;28;20040;-80
2022/07/09 04:12:59;;;;;;;6.85;3.05;;;;;;;;;;4996125;28;20061;-80
2022/07/09 04:15:25;;;;;;;8.35;3.40;;;;;;;;;;4996527;28;20037;-80
2022/07/09 04:17:51;;;;;;;5.07;3.03;;;;;;;;;;4996114;28;20053;-80
2022/07/09 04:20:17;;;;;;;6.50;2.83;;;;;;;;;;5003060;28;20031;-79
2022/07/09 04:22:43;;;;;;;6.53;2.90;;;;;;;;;;4996755;28;20029;-80
2022/07/09 04:25:09;;;;;;;5.28;2.88;;;;;;;;;;4996679;28;20022;-79
2022/07/09 04:27:38;;;;;;;6.57;3.13;;;;;;;;;;4996460;28;20022;-80
2022/07/09 04:30:05;;;;;;;6.95;2.58;;;;;;;;;;4996734;28;20054;-79
2022/07/09 04:32:31;;;;;;;5.38;3.20;;;;;;;;;;5007521;28;20037;-80
2022/07/09 04:34:57;;;;;;;5.25;2.90;;;;;;;;;;5015513;28;20054;-79
2022/07/09 04:37:23;;;;;;;5.93;2.70;;;;;;;;;;5015398;28;20030;-81
2022/07/09 04:39:49;;;;;;;8.38;2.80;;;;;;;;;;5011095;28;20033;-80
2022/07/09 04:42:15;;;;;;;5.50;2.95;;;;;;;;;;5011480;28;20101;-80
2022/07/09 04:44:42;;;;;;;5.68;2.90;;;;;;;;;;4996595;28;20493;-79
2022/07/09 04:47:09;;;;;;;6.45;2.85;;;;;;;;;;4995326;28;20172;-79
2022/07/09 04:49:35;;;;;;;4.72;2.72;;;;;;;;;;4996168;28;20026;-80
2022/07/09 04:52:01;;;;;;;5.07;2.60;;;;;;;;;;4995324;28;20038;-79
2022/07/09 04:54:27;;;;;;;5.45;3.10;;;;;;;;;;4995399;28;20034;-80
2022/07/09 04:56:53;;;;;;;4.97;2.53;;;;;;;;;;4994847;28;20381;-79
2022/07/09 04:59:20;;;;;;;6.70;2.80;;;;;;;;;;4995839;28;20026;-80
2022/07/09 05:01:46;;;;;;;6.57;3.05;;;;;;;;;;4995039;28;20113;-80
2022/07/09 05:04:12;;;;;;;5.95;3.00;;;;;;;;;;4992647;28;20041;-79
2022/07/09 05:06:38;;;;;;;5.10;2.60;;;;;;;;;;4976356;28;20019;-80
2022/07/09 05:09:04;;;;;;;7.38;3.38;;;;;;;;;;4992619;28;20034;-80
2022/07/09 05:11:33;;;;;;;4.72;2.75;;;;;;;;;;4995999;28;20031;-80
2022/07/09 05:13:59;;;;;;;7.47;2.92;;;;;;;;;;4997138;28;20023;-78
2022/07/09 05:16:25;;;;;;;5.43;2.80;;;;;;;;;;4981422;28;20027;-79
2022/07/09 05:18:51;;;;;;;5.28;2.75;;;;;;;;;;4978622;28;20073;-79
2022/07/09 05:21:17;;;;;;;5.45;2.65;;;;;;;;;;4975698;28;20147;-81
2022/07/09 05:23:43;;;;;;;6.05;2.65;;;;;;;;;;4975026;28;20031;-80
2022/07/09 05:26:09;;;;;;;5.70;2.85;;;;;;;;;;4975557;28;20130;-80
2022/07/09 05:28:35;;;;;;;4.50;2.42;;;;;;;;;;4993725;28;20138;-80
2022/07/09 05:31:01;;;;;;;5.47;2.88;;;;;;;;;;4994629;28;20023;-80
2022/07/09 05:33:27;;;;;;;6.75;2.70;;;;;;;;;;4995329;28;20023;-79
2022/07/09 05:35:53;;;;;;;5.75;2.80;;;;;;;;;;4994882;28;20142;-80
2022/07/09 05:38:20;;;;;;;5.50;2.63;;;;;;;;;;4993921;28;20065;-80
2022/07/09 05:40:46;;;;;;;5.78;2.92;;;;;;;;;;5010050;28;20037;-80
2022/07/09 05:43:12;;;;;;;5.93;3.00;;;;;;;;;;5014239;28;20026;-79
2022/07/09 05:45:38;;;;;;;6.50;2.90;;;;;;;;;;5014223;28;20022;-79
2022/07/09 05:48:04;;;;;;;5.65;2.97;;;;;;;;;;5014303;28;20114;-79
2022/07/09 05:50:31;;;;;;;4.25;2.50;;;;;;;;;;5014240;28;20107;-79
2022/07/09 05:52:57;;;;;;;5.07;2.80;;;;;;;;;;4991000;28;20516;-80
2022/07/09 05:55:22;;;;;;;5.43;2.72;;;;;;;;;;4989133;28;20038;-79
2022/07/09 05:57:49;;;;;;;5.85;2.88;;;;;;;;;;4994232;28;20034;-80
2022/07/09 06:00:15;;;;;;;5.15;2.60;;;;;;;;;;4994556;28;20061;-80
2022/07/09 06:02:41;;;;;;;6.00;3.13;;;;;;;;;;4994173;28;20026;-80
2022/07/09 06:05:07;;;;;;;6.07;3.17;;;;;;;;;;5012201;28;20030;-80
2022/07/09 06:07:33;;;;;;;6.00;3.55;;;;;;;;;;5014533;28;20109;-80
2022/07/09 06:09:59;;;;;;;8.07;3.28;;;;;;;;;;5005997;28;20069;-80
2022/07/09 06:12:25;;;;;;;5.30;3.72;;;;;;;;;;4994572;28;20065;-80
2022/07/09 06:14:51;;;;;;;6.63;2.90;;;;;;;;;;4994926;28;20030;-80
2022/07/09 06:17:17;;;;;;;4.65;2.90;;;;;;;;;;5012827;28;20029;-81
2022/07/09 06:19:43;;;;;;;5.80;2.90;;;;;;;;;;5013122;28;20022;-79
2022/07/09 06:22:09;;;;;;;6.03;2.70;;;;;;;;;;5013920;28;20022;-80
2022/07/09 06:24:35;;;;;;;6.38;3.20;;;;;;;;;;5012746;28;20044;-80
2022/07/09 06:27:01;;;;;;;6.07;3.00;;;;;;;;;;5014707;28;20021;-80
2022/07/09 06:29:27;;;;;;;5.22;2.83;;;;;;;;;;5014230;28;20492;-80
2022/07/09 06:31:57;;;;;;;6.78;3.00;;;;;;;;;;5014246;28;20488;-80
2022/07/09 06:34:23;;;;;;;6.35;3.30;;;;;;;;;;5011673;28;20024;-80
2022/07/09 06:36:50;;;;;;;6.35;2.83;;;;;;;;;;4998539;28;20488;-80
2022/07/09 06:42:05;;;;;;;5.45;2.70;;;;;;;;;;4998106;28;20054;-80
2022/07/09 06:44:31;;;;;;;6.40;2.50;;;;;;;;;;4998305;28;20022;-80
2022/07/09 06:47:00;;;;;;;4.82;2.78;;;;;;;;;;4999094;28;20036;-82
2022/07/09 06:49:26;;;;;;;4.47;2.45;;;;;;;;;;5007768;28;20046;-80
2022/07/09 06:51:52;;;;;;;5.65;2.80;;;;;;;;;;5017748;28;20037;-80
2022/07/09 06:54:18;;;;;;;5.35;2.70;;;;;;;;;;5018054;28;20567;-81
2022/07/09 06:56:44;;;;;;;6.03;2.85;;;;;;;;;;5017712;28;20113;-80
2022/07/09 06:59:10;;;;;;;6.25;2.70;;;;;;;;;;5009447;28;20080;-80
2022/07/09 07:01:36;;;;;;;4.78;2.58;;;;;;;;;;4994865;28;20019;-78
2022/07/09 07:04:02;;;;;;;5.38;2.50;;;;;;;;;;4995462;28;20540;-77
2022/07/09 07:06:28;;;;;;;6.45;2.97;;;;;;;;;;4995292;28;20161;-78
2022/07/09 07:08:54;;;;;;;4.32;2.40;;;;;;;;;;5001016;28;20034;-81
2022/07/09 07:11:20;;;;;;;4.50;2.30;;;;;;;;;;5016472;28;20029;-82
2022/07/09 07:13:46;;;;;;;3.83;2.20;;;;;;;;;;5017330;28;20033;-80
2022/07/09 07:16:12;;;;;;;5.55;2.20;;;;;;;;;;5017355;28;20392;-81
2022/07/09 07:18:38;;;;;;;6.63;2.30;;;;;;;;;;5017431;28;20088;-81
2022/07/09 07:21:04;;;;;;;7.05;2.33;;;;;;;;;;5016706;28;20030;-81
2022/07/09 07:23:31;;;;;;;4.25;2.03;;;;;;;;;;5016108;28;20030;-80
2022/07/09 07:25:58;;;;;;;4.10;2.00;;;;;;;;;;5006741;28;20511;-81
2022/07/09 07:28:24;;;;;;;5.43;2.10;;;;;;;;;;4984295;28;20351;-81
2022/07/09 07:30:50;;;;;;;4.78;2.10;;;;;;;;;;4978028;28;20555;-81
2022/07/09 07:33:16;;;;;;;5.55;2.10;;;;;;;;;;4978385;28;20550;-80
2022/07/09 07:35:42;;;;;;;5.53;2.10;;;;;;;;;;5013236;28;20076;-81
2022/07/09 07:38:08;;;;;;;4.32;2.00;;;;;;;;;;5016506;28;20476;-81
2022/07/09 07:40:34;;;;;;;5.40;1.60;;;;;;;;;;5016800;28;20068;-80
2022/07/09 07:43:00;;;;;;;4.65;1.90;;;;;;;;;;5016856;28;20049;-80
2022/07/09 07:45:26;;;;;;;4.75;2.20;;;;;;;;;;5016702;28;20419;-80
2022/07/09 07:47:54;;;;;;;7.72;2.70;;;;;;;;;;5014030;28;20033;-80
2022/07/09 07:50:20;;;;;;;4.82;2.08;;;;;;;;;;5013125;28;20053;-80
2022/07/09 07:52:46;;;;;;;4.82;2.15;;;;;;;;;;4996166;28;20081;-81
2022/07/09 07:55:12;;;;;;;4.00;1.85;;;;;;;;;;4996697;28;20033;-81
2022/07/09 07:57:40;;;;;;;3.83;1.80;;;;;;;;;;5000942;28;20484;-81
2022/07/09 08:00:07;;;;;;;4.15;2.03;;;;;;;;;;5015839;28;20029;-81
2022/07/09 08:02:34;;;;;;;5.03;2.22;;;;;;;;;;5013780;28;20022;-80
2022/07/09 08:05:00;;;;;;;3.80;2.33;;;;;;;;;;5017115;28;20026;-80
2022/07/09 08:07:26;;;;;;;4.85;2.38;;;;;;;;;;5017220;28;20451;-80
2022/07/09 08:09:52;;;;;;;5.32;2.03;;;;;;;;;;5016475;28;20092;-81
2022/07/09 08:12:18;;;;;;;4.55;2.03;;;;;;;;;;5016139;28;20476;-80
2022/07/09 08:14:44;;;;;;;5.13;2.08;;;;;;;;;;5011488;28;20045;-80
2022/07/09 08:17:10;;;;;;;4.43;1.80;;;;;;;;;;5011509;28;20030;-80
2022/07/09 08:19:36;;;;;;;4.78;2.22;;;;;;;;;;5015353;28;20022;-79
2022/07/09 08:22:02;;;;;;;6.15;2.10;;;;;;;;;;5015042;28;20026;-80
2022/07/09 08:24:28;;;;;;;5.60;2.20;;;;;;;;;;5015481;28;20373;-78
2022/07/09 08:26:54;;;;;;;5.95;2.40;;;;;;;;;;5016283;28;20045;-79
2022/07/09 08:29:20;;;;;;;3.92;2.30;;;;;;;;;;5014430;28;20076;-80
2022/07/09 08:31:49;;;;;;;4.15;2.33;;;;;;;;;;5015365;28;20071;-80
2022/07/09 08:34:15;;;;;;;6.55;2.33;;;;;;;;;;5014846;28;20045;-80
2022/07/09 08:36:41;;;;;;;6.53;2.47;;;;;;;;;;5015232;28;20492;-80
2022/07/09 08:39:07;;;;;;;3.95;1.80;;;;;;;;;;5014699;28;20030;-80
2022/07/09 08:41:33;;;;;;;4.18;1.92;;;;;;;;;;5004935;28;20045;-81
2022/07/09 08:44:01;;;;;;;4.07;1.63;;;;;;;;;;4994749;28;20488;-79
2022/07/09 08:46:27;;;;;;;3.70;1.88;;;;;;;;;;4995199;28;20034;-80
2022/07/09 08:48:54;;;;;;;4.90;2.10;;;;;;;;;;4995584;28;20038;-81
2022/07/09 08:51:21;;;;;;;4.53;1.90;;;;;;;;;;4996141;28;20440;-81
2022/07/09 08:53:47;;;;;;;4.22;1.75;;;;;;;;;;4995819;28;20496;-79
2022/07/09 08:56:13;;;;;;;4.07;1.88;;;;;;;;;;4996140;28;20030;-81
2022/07/09 08:58:40;;;;;;;3.67;1.88;;;;;;;;;;4997633;28;20529;-80
2022/07/09 09:01:06;;;;;;;3.80;1.77;;;;;;;;;;5015057;28;20555;-79
2022/07/09 09:03:32;;;;;;;4.35;2.42;;;;;;;;;;5014830;28;20022;-81
2022/07/09 09:06:08;;;;;;;5.38;1.95;;;;;;;;;;5015027;28;20053;-81
2022/07/09 09:08:38;;;;;;;4.70;1.80;;;;;;;;;;5013556;28;20021;-80
2022/07/09 09:11:08;;;;;;;5.38;1.90;;;;;;;;;;5008961;28;20109;-80
2022/07/09 09:13:40;;;;;;;6.07;2.30;;;;;;;;;;4994576;28;20511;-80
2022/07/09 09:16:07;;;;;;;3.88;1.80;;;;;;;;;;4993726;28;20031;-80
2022/07/09 09:18:37;;;;;;;4.00;1.73;;;;;;;;;;4994493;28;20019;-81
2022/07/09 09:21:06;;;;;;;5.07;2.20;;;;;;;;;;4995528;28;20044;-81
2022/07/09 09:23:39;;;;;;;7.22;2.53;;;;;;;;;;4997296;28;20512;-79
2022/07/09 09:26:25;;;;;;;5.45;2.40;;;;;;;;;;5014498;28;20383;-80
2022/07/09 09:28:52;;;;;;;4.80;2.30;;;;;;;;;;5014322;28;20025;-80
2022/07/09 09:31:28;;;;;;;4.75;2.35;;;;;;;;;;5014696;28;20079;-79
2022/07/09 09:33:55;;;;;;;5.05;2.60;;;;;;;;;;5001462;28;20057;-80
2022/07/09 09:36:31;;;;;;;5.03;2.60;;;;;;;;;;4994772;28;20051;-82
2022/07/09 09:39:10;;;;;;;5.80;3.25;;;;;;;;;;4994638;28;20098;-81
2022/07/09 09:41:36;;;;;;;5.90;2.60;;;;;;;;;;4994056;28;20023;-80
2022/07/09 09:44:12;;;;;;;5.40;3.42;;;;;;;;;;5005134;28;20034;-78
2022/07/09 09:46:38;;;;;;;5.82;3.10;;;;;;;;;;5012844;28;20061;-80
2022/07/09 09:49:07;;;;;;;5.25;3.20;;;;;;;;;;5011501;28;20038;-79
2022/07/09 09:51:36;;;;;;;7.03;3.63;;;;;;;;;;5009035;28;20026;-79
2022/07/09 09:54:03;;;;;;;8.07;3.67;;;;;;;;;;5013335;28;20022;-79
2022/07/09 09:56:30;;;;;;;6.93;3.90;;;;;;;;;;5013566;28;20084;-80
2022/07/09 09:58:57;;;;;;;8.48;3.20;;;;;;;;;;5011150;28;20484;-78
2022/07/09 10:01:23;;;;;;;4.88;3.05;;;;;;;;;;5012250;28;20014;-78
2022/07/09 10:03:50;;;;;;;5.25;3.22;;;;;;;;;;5012519;28;20494;-80
2022/07/09 10:06:16;;;;;;;5.85;3.25;;;;;;;;;;5012736;28;20076;-79
2022/07/09 10:08:42;;;;;;;7.72;3.70;;;;;;;;;;5010928;28;20018;-79
2022/07/09 10:11:08;;;;;;;8.55;3.58;;;;;;;;;;5003728;28;20025;-78
2022/07/09 10:13:37;;;;;;;6.60;3.60;;;;;;;;;;4992820;28;20030;-79
2022/07/09 10:16:04;;;;;;;7.13;3.55;;;;;;;;;;4993135;28;20023;-79
2022/07/09 10:18:30;;;;;;;6.72;3.65;;;;;;;;;;4992940;28;20034;-79
2022/07/09 10:20:57;;;;;;;5.55;3.40;;;;;;;;;;4993015;28;20023;-79
2022/07/09 10:23:24;;;;;;;6.03;3.63;;;;;;;;;;4992383;28;20030;-79
2022/07/09 10:25:55;;;;;;;4.90;2.95;;;;;;;;;;4992768;28;20105;-79
2022/07/09 10:28:24;;;;;;;5.40;3.00;;;;;;;;;;4993197;28;20484;-79
2022/07/09 10:30:51;;;;;;;5.50;3.42;;;;;;;;;;4992918;28;20031;-79
2022/07/09 10:33:19;;;;;;;5.55;3.47;;;;;;;;;;4992754;28;20022;-79
2022/07/09 10:35:47;;;;;;;6.60;3.15;;;;;;;;;;4992227;28;20124;-79
2022/07/09 10:38:14;;;;;;;6.18;3.00;;;;;;;;;;4991974;28;20033;-79
2022/07/09 10:40:41;;;;;;;6.65;2.95;;;;;;;;;;4992215;28;20029;-79
2022/07/09 10:43:07;;;;;;;5.15;2.97;;;;;;;;;;4993008;28;20391;-79
2022/07/09 10:45:37;;;;;;;6.50;3.47;;;;;;;;;;4993100;28;20050;-78
2022/07/09 10:48:04;;;;;;;5.25;2.70;;;;;;;;;;4992849;28;20026;-80
2022/07/09 10:50:31;;;;;;;5.90;2.92;;;;;;;;;;4992815;28;20033;-78
2022/07/09 10:52:57;;;;;;;5.60;2.85;;;;;;;;;;5000275;28;20057;-79
2022/07/09 10:55:25;;;;;;;5.57;2.65;;;;;;;;;;5011938;28;20026;-79
2022/07/09 10:57:51;;;;;;;5.88;2.72;;;;;;;;;;5012206;28;20034;-79
2022/07/09 11:00:18;;;;;;;4.82;2.90;;;;;;;;;;4990939;28;20023;-79
2022/07/09 11:02:53;;;;;;;6.22;2.75;;;;;;;;;;4972938;28;20023;-79
2022/07/09 11:05:19;;;;;;;7.10;2.97;;;;;;;;;;4985665;28;20022;-78
2022/07/09 11:07:54;;;;;;;5.45;2.80;;;;;;;;;;5011988;28;20068;-79
2022/07/09 11:10:21;;;;;;;5.53;2.50;;;;;;;;;;5012417;28;20026;-80
2022/07/09 11:12:50;;;;;;;4.40;2.40;;;;;;;;;;4977167;28;20480;-79
2022/07/09 11:15:19;;;;;;;7.82;2.83;;;;;;;;;;4992449;28;20499;-79
2022/07/09 11:17:54;;;;;;;5.82;3.38;;;;;;;;;;4992949;28;20053;-81
2022/07/09 11:20:20;;;;;;;5.30;2.95;;;;;;;;;;5008598;28;20041;-78
2022/07/09 11:22:49;;;;;;;4.75;2.65;;;;;;;;;;5013519;28;20013;-79
2022/07/09 11:25:16;;;;;;;5.13;2.83;;;;;;;;;;5011989;28;20155;-79
2022/07/09 11:27:42;;;;;;;5.07;2.78;;;;;;;;;;4976522;28;20034;-78
2022/07/09 11:30:12;;;;;;;4.40;2.42;;;;;;;;;;4974881;28;20050;-79
2022/07/09 11:32:38;;;;;;;5.32;2.55;;;;;;;;;;4985480;28;20028;-78
2022/07/09 11:35:04;;;;;;;6.20;2.70;;;;;;;;;;5017786;28;20551;-77
2022/07/09 11:37:30;;;;;;;6.07;3.20;;;;;;;;;;5017799;28;20025;-81
2022/07/09 11:39:56;;;;;;;5.10;2.40;;;;;;;;;;5015460;28;20033;-79
2022/07/09 11:42:22;;;;;;;4.50;2.65;;;;;;;;;;4999308;28;20030;-78
2022/07/09 11:44:55;;;;;;;4.40;2.53;;;;;;;;;;4994655;28;20388;-79
2022/07/09 11:47:31;;;;;;;4.75;2.30;;;;;;;;;;5007765;28;20034;-80
2022/07/09 11:50:05;;;;;;;4.65;2.60;;;;;;;;;;5005739;28;20033;-79
2022/07/09 11:52:31;;;;;;;5.35;2.65;;;;;;;;;;4996215;28;20101;-79
2022/07/09 11:54:57;;;;;;;4.43;2.53;;;;;;;;;;5002471;28;20427;-79
2022/07/09 11:57:23;;;;;;;6.10;2.75;;;;;;;;;;5012173;28;20025;-78
2022/07/09 11:59:49;;;;;;;4.43;2.30;;;;;;;;;;5014510;28;20033;-79
2022/07/09 12:02:25;;;;;;;4.13;2.38;;;;;;;;;;5014705;28;20041;-79
2022/07/09 12:04:51;;;;;;;4.75;2.70;;;;;;;;;;5013909;28;20514;-81
2022/07/09 12:07:17;;;;;;;5.75;2.65;;;;;;;;;;5012610;28;20076;-80
2022/07/09 12:09:43;;;;;;;5.57;2.58;;;;;;;;;;5015398;28;20034;-78
2022/07/09 12:12:09;;;;;;;7.53;2.40;;;;;;;;;;5000759;28;20038;-79
2022/07/09 12:14:35;;;;;;;3.95;2.58;;;;;;;;;;5004096;28;20037;-80
2022/07/09 12:17:01;;;;;;;4.22;2.47;;;;;;;;;;5013738;28;20112;-80
2022/07/09 12:19:27;;;;;;;4.70;2.60;;;;;;;;;;5015099;28;20552;-77
2022/07/09 12:21:53;;;;;;;6.40;3.33;;;;;;;;;;5014738;28;20026;-79
2022/07/09 12:24:20;;;;;;;5.70;2.75;;;;;;;;;;5008580;28;20081;-80
2022/07/09 12:26:46;;;;;;;6.40;2.78;;;;;;;;;;5014163;28;20030;-79
2022/07/09 12:29:12;;;;;;;5.70;2.53;;;;;;;;;;5014232;28;20032;-79
2022/07/09 12:31:38;;;;;;;4.80;2.60;;;;;;;;;;5013662;28;20041;-79
2022/07/09 12:34:05;;;;;;;4.93;2.60;;;;;;;;;;4994832;28;20150;-80
2022/07/09 12:36:31;;;;;;;4.70;2.40;;;;;;;;;;4994140;28;20500;-79
2022/07/09 12:38:57;;;;;;;5.32;2.40;;;;;;;;;;4997233;28;20026;-78
2022/07/09 12:41:23;;;;;;;4.60;2.58;;;;;;;;;;5004757;28;20022;-78
2022/07/09 12:43:49;;;;;;;8.30;2.80;;;;;;;;;;4994492;28;20473;-79
2022/07/09 12:46:16;;;;;;;3.97;2.60;;;;;;;;;;4994409;28;20113;-79
2022/07/09 12:48:42;;;;;;;4.60;2.30;;;;;;;;;;4994160;28;20029;-79
2022/07/09 12:51:08;;;;;;;4.40;2.70;;;;;;;;;;4994884;28;20030;-79
2022/07/09 12:53:34;;;;;;;4.20;2.38;;;;;;;;;;5001118;28;20025;-79
2022/07/09 12:56:00;;;;;;;5.35;2.70;;;;;;;;;;4986134;28;20042;-80
2022/07/09 12:58:26;;;;;;;4.55;2.30;;;;;;;;;;4974690;28;20035;-79
2022/07/09 13:00:52;;;;;;;4.05;2.20;;;;;;;;;;4974313;28;20093;-79
2022/07/09 13:03:18;;;;;;;4.82;2.20;;;;;;;;;;4974880;28;20045;-79
2022/07/09 13:05:44;;;;;;;3.90;2.40;;;;;;;;;;4974671;28;20034;-80
2022/07/09 13:08:10;;;;;;;4.30;2.10;;;;;;;;;;4980656;28;20025;-79
2022/07/09 13:10:36;;;;;;;8.70;3.28;;;;;;;;;;4994337;28;20030;-79
2022/07/09 13:13:02;;;;;;;4.70;2.20;;;;;;;;;;4994465;28;20030;-79
2022/07/09 13:15:28;;;;;;;4.78;2.00;;;;;;;;;;4994265;28;20033;-80
2022/07/09 13:17:54;;;;;;;4.28;2.40;;;;;;;;;;4993900;28;20044;-80
2022/07/09 13:20:20;;;;;;;4.43;2.00;;;;;;;;;;4994219;28;20057;-79
2022/07/09 13:22:46;;;;;;;3.80;2.00;;;;;;;;;;4994467;28;20027;-80
2022/07/09 13:25:12;;;;;;;4.40;2.35;;;;;;;;;;4994152;28;20044;-80
2022/07/09 13:27:38;;;;;;;4.57;2.30;;;;;;;;;;4994177;28;20477;-79
2022/07/09 13:30:04;;;;;;;3.92;2.00;;;;;;;;;;4993484;28;20111;-80
2022/07/09 13:32:31;;;;;;;4.70;2.00;;;;;;;;;;4993294;28;20057;-78
2022/07/09 13:34:57;;;;;;;6.20;2.72;;;;;;;;;;4993559;28;20496;-78
2022/07/09 13:37:23;;;;;;;6.90;2.53;;;;;;;;;;4994637;28;20030;-80
2022/07/09 13:39:49;;;;;;;5.95;2.17;;;;;;;;;;4994332;28;20081;-78
2022/07/09 13:42:15;;;;;;;4.90;2.00;;;;;;;;;;4993425;28;20034;-79
2022/07/09 13:44:42;;;;;;;4.57;2.15;;;;;;;;;;4973348;28;20078;-78
2022/07/09 13:47:08;;;;;;;4.72;1.83;;;;;;;;;;4982678;28;20489;-80
2022/07/09 13:49:34;;;;;;;3.88;1.92;;;;;;;;;;4973964;28;20500;-80
2022/07/09 13:52:01;;;;;;;4.78;2.17;;;;;;;;;;4973596;28;20037;-79
2022/07/09 13:54:27;;;;;;;3.60;1.67;;;;;;;;;;4976634;28;20023;-78
2022/07/09 13:56:53;;;;;;;4.10;2.00;;;;;;;;;;5010141;28;20080;-79
2022/07/09 13:59:19;;;;;;;5.43;2.38;;;;;;;;;;5012630;28;20080;-79
2022/07/09 14:01:45;;;;;;;4.03;1.90;;;;;;;;;;5008611;28;20088;-80
2022/07/09 14:04:11;;;;;;;4.10;2.20;;;;;;;;;;4992295;28;20373;-79
2022/07/09 14:06:37;;;;;;;3.75;1.95;;;;;;;;;;4992146;28;20050;-79
2022/07/09 14:09:04;;;;;;;7.65;2.30;;;;;;;;;;4991721;28;20030;-78
2022/07/09 14:11:30;;;;;;;5.18;2.17;;;;;;;;;;4992536;28;20061;-78
2022/07/09 14:13:57;;;;;;;5.90;1.88;;;;;;;;;;4991998;28;20058;-78
2022/07/09 14:16:23;;;;;;;4.68;1.60;;;;;;;;;;4993088;28;20117;-78
2022/07/09 14:18:49;;;;;;;5.82;2.03;;;;;;;;;;4991962;28;20027;-79
2022/07/09 14:21:15;;;;;;;7.03;2.08;;;;;;;;;;4992091;28;20038;-79
2022/07/09 14:23:47;;;;;;;4.63;2.05;;;;;;;;;;4992026;28;20051;-78
2022/07/09 14:26:13;;;;;;;5.63;2.25;;;;;;;;;;5008381;28;20025;-77
2022/07/09 14:28:39;;;;;;;7.05;2.08;;;;;;;;;;5012097;28;20030;-79
2022/07/09 14:31:05;;;;;;;4.38;1.63;;;;;;;;;;5011489;28;20045;-79
2022/07/09 14:33:33;;;;;;;4.03;1.85;;;;;;;;;;5011524;28;20115;-78
2022/07/09 14:35:59;;;;;;;5.60;1.90;;;;;;;;;;5009955;28;20042;-79
2022/07/09 14:38:25;;;;;;;4.97;2.13;;;;;;;;;;5011527;28;20034;-77
2022/07/09 14:40:51;;;;;;;6.45;2.20;;;;;;;;;;5011171;28;20156;-77
2022/07/09 14:43:17;;;;;;;9.40;2.35;;;;;;;;;;4991929;28;20061;-77
2022/07/09 14:45:43;;;;;;;8.07;2.35;;;;;;;;;;5000877;28;20571;-77